createdAt,value
2017-08-14T00:00:13.951Z,4.77
2017-08-14T00:02:43.211Z,3.80
2017-08-14T00:05:12.611Z,4.80
2017-08-14T00:07:41.931Z,7.17
2017-08-14T00:10:09.404Z,4.13
2017-08-14T00:12:39.032Z,5.30
2017-08-14T00:15:08.368Z,4.20
2017-08-14T00:17:37.818Z,4.73
2017-08-14T00:20:07.209Z,4.50
2017-08-14T00:22:36.843Z,7.83
2017-08-14T00:25:06.514Z,4.70
2017-08-14T00:27:35.650Z,7.67
2017-08-14T00:30:05.343Z,4.70
2017-08-14T00:32:34.524Z,4.57
2017-08-14T00:35:05.615Z,6.63
2017-08-14T00:37:35.232Z,5.60
2017-08-14T00:40:04.509Z,7.00
2017-08-14T00:42:33.680Z,9.23
2017-08-14T00:45:03.405Z,5.00
2017-08-14T00:47:32.734Z,4.60
2017-08-14T00:50:02.271Z,5.60
2017-08-14T00:52:31.636Z,4.93
2017-08-14T00:55:01.252Z,6.13
2017-08-14T00:57:30.633Z,4.73
2017-08-14T00:59:59.836Z,6.47
2017-08-14T01:02:28.963Z,5.67
2017-08-14T01:04:58.636Z,4.93
2017-08-14T01:07:28.015Z,9.10
2017-08-14T01:09:57.734Z,6.00
2017-08-14T01:12:27.477Z,9.40
2017-08-14T01:14:56.723Z,5.60
2017-08-14T01:17:29.326Z,5.50
2017-08-14T01:20:00.819Z,6.00
2017-08-14T01:22:31.405Z,6.60
2017-08-14T01:25:00.855Z,5.97
2017-08-14T01:27:29.778Z,8.20
2017-08-14T01:29:59.073Z,7.73
2017-08-14T01:32:28.814Z,6.00
2017-08-14T01:34:56.902Z,6.40
2017-08-14T01:37:26.493Z,5.93
2017-08-14T01:39:55.459Z,6.90
2017-08-14T01:42:24.892Z,6.90
2017-08-14T01:44:54.312Z,7.20
2017-08-14T01:47:22.501Z,8.87
2017-08-14T01:49:52.126Z,6.50
2017-08-14T01:52:21.300Z,8.60
2017-08-14T01:54:50.693Z,7.97
2017-08-14T01:57:20.310Z,7.10
2017-08-14T01:59:49.229Z,7.67
2017-08-14T02:02:17.553Z,6.63
2017-08-14T02:04:46.626Z,7.37
2017-08-14T02:07:15.839Z,10.47
2017-08-14T02:09:44.844Z,8.97
2017-08-14T02:12:14.206Z,7.27
2017-08-14T02:14:43.313Z,7.17
2017-08-14T02:17:12.993Z,10.23
2017-08-14T02:19:42.230Z,6.77
2017-08-14T02:22:11.934Z,6.80
2017-08-14T02:24:41.567Z,6.83
2017-08-14T02:27:10.744Z,10.10
2017-08-14T02:29:38.537Z,8.23
2017-08-14T02:32:07.991Z,6.77
2017-08-14T02:34:37.432Z,6.70
2017-08-14T02:37:06.781Z,9.27
2017-08-14T02:39:36.013Z,6.10
2017-08-14T02:42:05.430Z,7.50
2017-08-14T02:44:35.552Z,7.90
2017-08-14T02:47:04.637Z,6.70
2017-08-14T02:49:33.649Z,6.53
2017-08-14T02:52:02.929Z,8.83
2017-08-14T02:54:32.548Z,11.03
2017-08-14T02:57:01.347Z,11.07
2017-08-14T02:59:30.681Z,14.60
2017-08-14T03:02:00.049Z,7.10
2017-08-14T03:04:29.398Z,11.13
2017-08-14T03:06:58.224Z,8.67
2017-08-14T03:09:27.479Z,7.93
2017-08-14T03:11:57.076Z,7.57
2017-08-14T03:14:25.390Z,8.10
2017-08-14T03:16:54.052Z,8.63
2017-08-14T03:19:23.505Z,11.53
2017-08-14T03:21:52.664Z,6.50
2017-08-14T03:24:22.153Z,6.50
2017-08-14T03:26:51.047Z,7.83
2017-08-14T03:29:21.008Z,6.30
2017-08-14T03:31:50.474Z,7.33
2017-08-14T03:34:19.921Z,8.23
2017-08-14T03:36:49.316Z,8.40
2017-08-14T03:39:18.667Z,7.30
2017-08-14T03:41:48.136Z,6.57
2017-08-14T03:44:17.349Z,7.20
2017-08-14T03:46:46.853Z,8.17
2017-08-14T03:49:15.783Z,8.97
2017-08-14T03:51:44.826Z,6.03
2017-08-14T03:54:15.963Z,9.27
2017-08-14T03:56:44.909Z,13.07
2017-08-14T03:59:12.611Z,10.80
2017-08-14T04:01:40.059Z,8.97
2017-08-14T04:04:07.556Z,9.50
2017-08-14T04:06:35.051Z,8.73
2017-08-14T04:09:02.505Z,7.33
2017-08-14T04:11:29.978Z,6.83
2017-08-14T04:13:57.427Z,7.30
2017-08-14T04:16:24.907Z,7.10
2017-08-14T04:18:52.379Z,10.33
2017-08-14T04:21:19.875Z,6.17
2017-08-14T04:23:47.361Z,8.50
2017-08-14T04:26:14.808Z,7.33
2017-08-14T04:28:43.115Z,5.93
2017-08-14T04:31:10.579Z,9.47
2017-08-14T04:33:38.084Z,8.37
2017-08-14T04:36:06.410Z,6.43
2017-08-14T04:38:33.867Z,11.73
2017-08-14T04:41:01.360Z,7.73
2017-08-14T04:43:28.843Z,8.30
2017-08-14T04:45:56.341Z,8.63
2017-08-14T04:48:23.809Z,8.57
2017-08-14T04:50:51.323Z,11.70
2017-08-14T04:53:18.807Z,8.63
2017-08-14T04:55:46.330Z,10.67
2017-08-14T04:58:13.780Z,12.23
2017-08-14T05:00:41.275Z,8.67
2017-08-14T05:03:08.735Z,9.40
2017-08-14T05:05:36.207Z,8.90
2017-08-14T05:08:03.692Z,11.30
2017-08-14T05:10:31.175Z,9.10
2017-08-14T05:12:58.656Z,10.70
2017-08-14T05:15:26.120Z,9.90
2017-08-14T05:17:53.622Z,9.77
2017-08-14T05:20:21.083Z,9.10
2017-08-14T05:22:48.538Z,10.17
2017-08-14T05:25:16.024Z,12.57
2017-08-14T05:27:44.139Z,10.07
2017-08-14T05:30:11.648Z,10.27
2017-08-14T05:32:39.094Z,10.23
2017-08-14T05:35:06.712Z,10.90
2017-08-14T05:37:34.199Z,12.17
2017-08-14T05:40:01.652Z,13.37
2017-08-14T05:42:29.771Z,10.53
2017-08-14T05:44:57.227Z,10.57
2017-08-14T05:47:24.739Z,13.80
2017-08-14T05:49:52.198Z,13.03
2017-08-14T05:52:19.669Z,13.57
2017-08-14T05:54:47.175Z,12.93
2017-08-14T05:57:14.692Z,11.30
2017-08-14T05:59:42.176Z,8.93
2017-08-14T06:02:09.633Z,10.73
2017-08-14T06:04:37.119Z,11.57
2017-08-14T06:07:04.607Z,12.83
2017-08-14T06:09:32.064Z,9.80
2017-08-14T06:11:59.555Z,9.27
2017-08-14T06:14:27.019Z,8.17
2017-08-14T06:16:54.511Z,8.87
2017-08-14T06:19:21.974Z,14.23
2017-08-14T06:21:49.447Z,11.47
2017-08-14T06:24:16.947Z,8.80
2017-08-14T06:26:48.452Z,9.50
2017-08-14T06:29:16.012Z,8.30
2017-08-14T06:31:43.581Z,9.90
2017-08-14T06:34:11.067Z,7.20
2017-08-14T06:36:38.571Z,6.40
2017-08-14T06:39:06.051Z,6.57
2017-08-14T06:41:33.519Z,6.17
2017-08-14T06:44:01.076Z,8.37
2017-08-14T06:46:28.598Z,7.93
2017-08-14T06:48:56.070Z,7.80
2017-08-14T06:51:23.574Z,6.47
2017-08-14T06:53:51.092Z,6.53
2017-08-14T06:56:18.549Z,7.50
2017-08-14T06:58:46.047Z,7.00
2017-08-14T07:01:13.575Z,6.07
2017-08-14T07:03:41.071Z,7.63
2017-08-14T07:06:08.538Z,7.10
2017-08-14T07:08:36.044Z,5.60
2017-08-14T07:11:03.627Z,8.53
2017-08-14T07:13:31.175Z,6.60
2017-08-14T07:15:58.681Z,10.33
2017-08-14T07:18:26.150Z,6.70
2017-08-14T07:20:53.638Z,8.10
2017-08-14T07:23:21.128Z,7.23
2017-08-14T07:25:48.589Z,6.87
2017-08-14T07:28:16.755Z,5.90
2017-08-14T07:30:44.267Z,7.80
2017-08-14T07:33:11.775Z,5.10
2017-08-14T07:35:39.271Z,6.23
2017-08-14T07:38:06.723Z,11.83
2017-08-14T07:40:34.222Z,7.80
2017-08-14T07:43:01.727Z,5.53
2017-08-14T07:45:29.375Z,4.87
2017-08-14T07:47:56.863Z,5.73
2017-08-14T07:50:24.318Z,5.93
2017-08-14T07:52:51.832Z,5.93
2017-08-14T07:55:19.375Z,4.83
2017-08-14T07:57:46.927Z,5.30
2017-08-14T08:00:14.400Z,4.83
2017-08-14T08:02:41.916Z,4.70
2017-08-14T08:05:09.443Z,5.80
2017-08-14T08:07:36.888Z,3.43
2017-08-14T08:10:04.389Z,4.33
2017-08-14T08:12:31.849Z,4.43
2017-08-14T08:14:59.335Z,5.70
2017-08-14T08:17:26.825Z,4.00
2017-08-14T08:19:54.344Z,4.93
2017-08-14T08:22:22.707Z,3.27
2017-08-14T08:24:50.159Z,4.50
2017-08-14T08:27:17.651Z,3.43
2017-08-14T08:29:45.128Z,3.43
2017-08-14T08:32:12.588Z,3.40
2017-08-14T08:34:40.069Z,3.30
2017-08-14T08:37:08.177Z,3.03
2017-08-14T08:39:35.666Z,4.10
2017-08-14T08:42:03.115Z,4.30
2017-08-14T08:44:30.628Z,5.00
2017-08-14T08:46:58.988Z,3.40
2017-08-14T08:49:26.515Z,5.10
2017-08-14T08:51:54.011Z,3.57
2017-08-14T08:54:21.468Z,3.87
2017-08-14T08:56:48.938Z,2.93
2017-08-14T08:59:16.423Z,3.57
2017-08-14T09:01:43.879Z,3.90
2017-08-14T09:04:11.371Z,3.13
2017-08-14T09:06:38.816Z,2.67
2017-08-14T09:09:06.288Z,2.70
2017-08-14T09:11:33.767Z,2.90
2017-08-14T09:14:01.244Z,3.10
2017-08-14T09:16:28.744Z,2.47
2017-08-14T09:19:05.616Z,2.60
2017-08-14T09:21:33.061Z,2.60
2017-08-14T09:24:00.516Z,2.63
2017-08-14T09:26:28.106Z,2.60
2017-08-14T09:28:55.565Z,2.40
2017-08-14T09:31:23.048Z,2.90
2017-08-14T09:33:50.495Z,3.30
2017-08-14T09:36:17.980Z,2.70
2017-08-14T09:38:45.453Z,3.53
2017-08-14T09:41:12.944Z,4.40
2017-08-14T09:43:40.402Z,2.53
2017-08-14T09:46:07.891Z,2.33
2017-08-14T09:48:35.466Z,3.63
2017-08-14T09:51:03.068Z,3.13
2017-08-14T09:53:30.648Z,2.03
2017-08-14T09:55:58.108Z,2.40
2017-08-14T09:58:25.602Z,2.70
2017-08-14T10:00:53.079Z,4.63
2017-08-14T10:03:20.541Z,2.47
2017-08-14T10:05:48.532Z,2.33
2017-08-14T10:08:16.350Z,2.30
2017-08-14T10:10:43.893Z,3.03
2017-08-14T10:13:11.395Z,2.00
2017-08-14T10:15:38.923Z,2.23
2017-08-14T10:18:06.531Z,3.50
2017-08-14T10:20:34.081Z,2.30
2017-08-14T10:23:01.585Z,2.43
2017-08-14T10:25:29.042Z,2.17
2017-08-14T10:27:56.558Z,5.60
2017-08-14T10:30:24.691Z,2.90
2017-08-14T10:32:52.143Z,2.57
2017-08-14T10:35:19.631Z,2.30
2017-08-14T10:37:47.076Z,3.87
2017-08-14T10:40:14.603Z,3.47
2017-08-14T10:42:42.078Z,2.80
2017-08-14T10:45:09.523Z,2.10
2017-08-14T10:47:37.016Z,2.50
2017-08-14T10:50:04.503Z,2.00
2017-08-14T10:52:31.992Z,2.73
2017-08-14T10:54:59.447Z,2.43
2017-08-14T10:57:26.956Z,2.63
2017-08-14T10:59:54.513Z,2.57
2017-08-14T11:02:21.995Z,2.10
2017-08-14T11:04:49.480Z,4.03
2017-08-14T11:07:16.973Z,2.20
2017-08-14T11:09:44.429Z,2.03
2017-08-14T11:12:11.920Z,2.47
2017-08-14T11:14:39.387Z,4.50
2017-08-14T11:17:06.864Z,3.27
2017-08-14T11:19:34.337Z,2.30
2017-08-14T11:22:01.827Z,3.63
2017-08-14T11:24:29.282Z,3.63
2017-08-14T11:26:56.732Z,2.07
2017-08-14T11:29:24.215Z,5.67
2017-08-14T11:31:51.680Z,4.27
2017-08-14T11:34:19.136Z,2.30
2017-08-14T11:36:46.608Z,2.40
2017-08-14T11:39:14.065Z,2.37
2017-08-14T11:41:41.570Z,4.77
2017-08-14T11:44:09.034Z,2.50
2017-08-14T11:46:36.514Z,4.10
2017-08-14T11:49:04.020Z,2.63
2017-08-14T11:51:31.476Z,2.57
2017-08-14T11:53:58.947Z,2.53
2017-08-14T11:56:26.437Z,2.00
2017-08-14T11:58:53.979Z,2.83
2017-08-14T12:01:21.440Z,2.43
2017-08-14T12:03:48.901Z,2.80
2017-08-14T12:06:17.327Z,2.33
2017-08-14T12:08:44.779Z,2.20
2017-08-14T12:11:12.264Z,2.23
2017-08-14T12:13:39.719Z,4.43
2017-08-14T12:16:07.215Z,2.23
2017-08-14T12:18:34.700Z,3.27
2017-08-14T12:21:02.166Z,2.63
2017-08-14T12:23:29.660Z,2.47
2017-08-14T12:25:57.129Z,4.10
2017-08-14T12:28:25.715Z,2.80
2017-08-14T12:30:53.175Z,3.63
2017-08-14T12:33:20.652Z,2.40
2017-08-14T12:35:48.143Z,7.70
2017-08-14T12:38:15.609Z,2.93
2017-08-14T12:40:43.095Z,2.87
2017-08-14T12:43:10.572Z,2.90
2017-08-14T12:45:38.094Z,2.40
2017-08-14T12:48:05.586Z,2.53
2017-08-14T12:50:33.146Z,2.57
2017-08-14T12:53:00.722Z,3.80
2017-08-14T12:55:28.226Z,3.73
2017-08-14T12:57:55.679Z,2.30
2017-08-14T13:00:23.197Z,3.03
2017-08-14T13:02:50.656Z,2.50
2017-08-14T13:05:18.168Z,2.13
2017-08-14T13:07:45.645Z,2.57
2017-08-14T13:10:13.105Z,2.23
2017-08-14T13:12:40.593Z,2.60
2017-08-14T13:15:08.060Z,2.57
2017-08-14T13:17:35.569Z,2.43
2017-08-14T13:20:03.031Z,2.77
2017-08-14T13:22:30.517Z,2.47
2017-08-14T13:24:57.969Z,2.73
2017-08-14T13:27:25.431Z,2.83
2017-08-14T13:29:52.937Z,3.03
2017-08-14T13:32:20.406Z,2.67
2017-08-14T13:34:47.879Z,2.70
2017-08-14T13:37:16.641Z,3.30
2017-08-14T13:39:44.167Z,2.50
2017-08-14T13:42:11.632Z,7.13
2017-08-14T13:44:39.148Z,2.37
2017-08-14T13:47:06.643Z,2.23
2017-08-14T13:49:34.116Z,5.43
2017-08-14T13:52:01.604Z,5.93
2017-08-14T13:54:29.063Z,3.10
2017-08-14T13:56:56.613Z,3.00
2017-08-14T13:59:24.061Z,2.90
2017-08-14T14:01:51.502Z,2.67
2017-08-14T14:04:19.022Z,3.50
2017-08-14T14:06:46.498Z,2.97
2017-08-14T14:09:13.967Z,3.03
2017-08-14T14:11:41.461Z,2.90
2017-08-14T14:14:08.948Z,2.70
2017-08-14T14:16:36.507Z,3.80
2017-08-14T14:19:03.992Z,3.00
2017-08-14T14:21:31.453Z,2.60
2017-08-14T14:23:58.915Z,2.70
2017-08-14T14:26:26.406Z,2.70
2017-08-14T14:28:53.861Z,3.27
2017-08-14T14:31:21.460Z,4.03
2017-08-14T14:33:49.048Z,4.80
2017-08-14T14:36:16.547Z,2.60
2017-08-14T14:38:45.155Z,2.80
2017-08-14T14:41:12.691Z,2.80
2017-08-14T14:43:40.309Z,4.10
2017-08-14T14:46:08.651Z,3.83
2017-08-14T14:48:36.227Z,3.20
2017-08-14T14:51:03.698Z,3.03
2017-08-14T14:53:31.219Z,3.10
2017-08-14T14:55:58.675Z,3.37
2017-08-14T14:58:26.116Z,2.80
2017-08-14T15:00:53.671Z,3.23
2017-08-14T15:03:21.123Z,2.97
2017-08-14T15:05:48.669Z,3.17
2017-08-14T15:08:16.138Z,3.20
2017-08-14T15:10:43.619Z,3.47
2017-08-14T15:13:11.104Z,2.83
2017-08-14T15:15:38.595Z,3.30
2017-08-14T15:18:06.559Z,3.60
2017-08-14T15:20:34.101Z,3.80
2017-08-14T15:23:01.646Z,2.80
2017-08-14T15:25:29.415Z,3.20
2017-08-14T15:27:56.936Z,3.97
2017-08-14T15:30:24.487Z,3.00
2017-08-14T15:32:52.804Z,3.47
2017-08-14T15:35:20.332Z,2.90
2017-08-14T15:37:47.826Z,3.00
2017-08-14T15:40:15.292Z,3.20
2017-08-14T15:42:43.620Z,2.93
2017-08-14T15:45:11.216Z,3.50
2017-08-14T15:47:38.751Z,3.30
2017-08-14T15:50:06.453Z,2.83
2017-08-14T15:52:33.927Z,3.20
2017-08-14T15:55:01.543Z,3.03
2017-08-14T15:57:29.320Z,3.10
2017-08-14T15:59:57.725Z,4.13
2017-08-14T16:02:25.934Z,3.10
2017-08-14T16:04:55.680Z,2.90
2017-08-14T16:07:23.291Z,3.17
2017-08-14T16:09:50.820Z,5.30
2017-08-14T16:12:18.396Z,3.70
2017-08-14T16:14:46.333Z,3.20
2017-08-14T16:17:13.956Z,3.37
2017-08-14T16:19:46.393Z,4.10
2017-08-14T16:22:14.724Z,3.50
2017-08-14T16:24:42.243Z,3.10
2017-08-14T16:36:06.176Z,4.50
2017-08-14T16:47:52.200Z,3.37
2017-08-14T17:22:08.509Z,4.57
2017-08-14T17:31:40.670Z,8.23
2017-08-14T17:34:08.970Z,11.40
2017-08-14T17:36:36.598Z,11.97
2017-08-14T17:42:26.223Z,6.03
2017-08-14T17:44:54.471Z,5.23
2017-08-14T17:47:22.468Z,5.57
2017-08-14T17:49:50.634Z,5.30
2017-08-14T17:52:29.693Z,5.93
2017-08-14T17:55:04.085Z,6.80
2017-08-14T18:06:41.242Z,8.23
2017-08-14T18:09:19.170Z,9.93
2017-08-14T18:14:50.093Z,6.70
2017-08-14T18:34:45.975Z,10.77
2017-08-14T18:37:13.592Z,6.90
2017-08-14T18:48:26.587Z,7.00
2017-08-14T18:50:54.710Z,9.10
2017-08-14T18:53:24.052Z,14.47
2017-08-14T18:55:56.259Z,9.03
2017-08-14T18:58:24.152Z,8.23
2017-08-14T19:32:30.374Z,6.67
2017-08-14T19:34:58.026Z,5.67
2017-08-14T19:37:25.680Z,6.53
2017-08-14T19:39:53.343Z,8.93
2017-08-14T20:03:35.850Z,6.50
2017-08-14T20:09:15.358Z,10.17
2017-08-14T20:11:42.925Z,8.33
2017-08-14T21:29:07.534Z,7.30
2017-08-14T22:26:38.794Z,9.60
2017-08-14T22:29:06.791Z,11.17
2017-08-14T22:31:34.570Z,11.67
2017-08-14T23:03:23.627Z,8.00
2017-08-14T23:05:51.855Z,8.90
2017-08-14T23:08:23.300Z,13.60
2017-08-14T23:10:51.434Z,6.63
2017-08-14T23:13:19.099Z,8.40
2017-08-14T23:15:47.537Z,7.40
2017-08-14T23:18:16.388Z,7.13
2017-08-14T23:29:15.571Z,9.13
